sensor_id;sensor_type;location;lat;lon;timestamp;pressure;altitude;pressure_sealevel;temperature;humidity
61109;BME280;46995;55.740;37.402;2023-02-19T00:01:22;97959.75;;;-5.55;75.47
61109;BME280;46995;55.740;37.402;2023-02-19T00:04:12;97951.41;;;-5.60;75.81
61109;BME280;46995;55.740;37.402;2023-02-19T00:06:40;97941.34;;;-5.64;75.60
61109;BME280;46995;55.740;37.402;2023-02-19T00:09:06;97937.88;;;-5.63;75.30
61109;BME280;46995;55.740;37.402;2023-02-19T00:11:34;97925.25;;;-5.68;74.92
61109;BME280;46995;55.740;37.402;2023-02-19T00:14:01;97934.84;;;-5.54;74.00
61109;BME280;46995;55.740;37.402;2023-02-19T00:16:28;97944.13;;;-5.50;75.38
61109;BME280;46995;55.740;37.402;2023-02-19T00:18:55;97932.28;;;-5.54;73.60
61109;BME280;46995;55.740;37.402;2023-02-19T00:21:21;97935.47;;;-5.49;73.05
61109;BME280;46995;55.740;37.402;2023-02-19T00:23:49;97924.50;;;-5.52;72.89
61109;BME280;46995;55.740;37.402;2023-02-19T00:26:16;97915.63;;;-5.64;72.82
61109;BME280;46995;55.740;37.402;2023-02-19T00:28:43;97922.44;;;-5.63;73.89
61109;BME280;46995;55.740;37.402;2023-02-19T00:31:24;97909.81;;;-5.68;73.70
61109;BME280;46995;55.740;37.402;2023-02-19T00:33:52;97904.22;;;-5.76;72.38
61109;BME280;46995;55.740;37.402;2023-02-19T00:36:18;97899.47;;;-5.85;73.20
61109;BME280;46995;55.740;37.402;2023-02-19T00:38:45;97924.41;;;-5.68;73.73
61109;BME280;46995;55.740;37.402;2023-02-19T00:41:12;97899.13;;;-5.77;73.60
61109;BME280;46995;55.740;37.402;2023-02-19T00:46:44;97900.44;;;-5.69;73.77
61109;BME280;46995;55.740;37.402;2023-02-19T00:49:20;97892.38;;;-5.80;73.75
61109;BME280;46995;55.740;37.402;2023-02-19T00:51:47;97899.75;;;-5.72;74.11
61109;BME280;46995;55.740;37.402;2023-02-19T00:54:13;97902.59;;;-5.78;73.35
61109;BME280;46995;55.740;37.402;2023-02-19T00:56:39;97875.03;;;-5.92;74.17
61109;BME280;46995;55.740;37.402;2023-02-19T00:59:05;97865.41;;;-5.88;73.76
61109;BME280;46995;55.740;37.402;2023-02-19T01:01:31;97872.03;;;-5.84;73.69
61109;BME280;46995;55.740;37.402;2023-02-19T01:03:57;97862.53;;;-5.82;74.45
61109;BME280;46995;55.740;37.402;2023-02-19T01:06:23;97861.63;;;-5.81;73.69
61109;BME280;46995;55.740;37.402;2023-02-19T01:08:48;97875.38;;;-5.82;73.23
61109;BME280;46995;55.740;37.402;2023-02-19T01:11:15;97861.41;;;-5.94;73.67
61109;BME280;46995;55.740;37.402;2023-02-19T01:13:42;97872.22;;;-5.87;73.64
61109;BME280;46995;55.740;37.402;2023-02-19T01:18:36;97866.69;;;-5.97;73.98
61109;BME280;46995;55.740;37.402;2023-02-19T01:21:11;97856.81;;;-5.87;74.83
61109;BME280;46995;55.740;37.402;2023-02-19T01:23:38;97866.78;;;-5.81;74.09
61109;BME280;46995;55.740;37.402;2023-02-19T01:26:12;97837.38;;;-5.93;74.67
61109;BME280;46995;55.740;37.402;2023-02-19T01:28:38;97854.81;;;-5.82;74.83
61109;BME280;46995;55.740;37.402;2023-02-19T01:31:06;97854.81;;;-5.82;75.22
61109;BME280;46995;55.740;37.402;2023-02-19T01:33:33;97849.94;;;-5.87;75.09
61109;BME280;46995;55.740;37.402;2023-02-19T01:36:02;97859.25;;;-5.86;74.61
61109;BME280;46995;55.740;37.402;2023-02-19T01:38:28;97836.81;;;-6.00;75.05
61109;BME280;46995;55.740;37.402;2023-02-19T01:40:55;97852.31;;;-5.84;74.22
61109;BME280;46995;55.740;37.402;2023-02-19T01:43:21;97850.75;;;-5.86;74.42
61109;BME280;46995;55.740;37.402;2023-02-19T01:45:47;97840.91;;;-5.95;74.82
61109;BME280;46995;55.740;37.402;2023-02-19T01:48:34;97858.22;;;-5.82;74.91
61109;BME280;46995;55.740;37.402;2023-02-19T01:51:08;97861.63;;;-5.81;74.27
61109;BME280;46995;55.740;37.402;2023-02-19T01:53:46;97821.69;;;-6.06;74.24
61109;BME280;46995;55.740;37.402;2023-02-19T01:56:16;97847.59;;;-5.91;74.55
61109;BME280;46995;55.740;37.402;2023-02-19T01:58:44;97850.00;;;-5.88;74.56
61109;BME280;46995;55.740;37.402;2023-02-19T02:01:12;97811.84;;;-6.15;74.53
61109;BME280;46995;55.740;37.402;2023-02-19T02:03:43;97847.59;;;-5.91;73.92
61109;BME280;46995;55.740;37.402;2023-02-19T02:06:22;97853.63;;;-5.92;73.70
61109;BME280;46995;55.740;37.402;2023-02-19T02:08:54;97837.59;;;-5.97;74.03
61109;BME280;46995;55.740;37.402;2023-02-19T02:11:46;97849.22;;;-5.90;74.46
61109;BME280;46995;55.740;37.402;2023-02-19T02:14:16;97828.50;;;-6.05;74.38
61109;BME280;46995;55.740;37.402;2023-02-19T02:19:52;97817.00;;;-6.15;74.22
61109;BME280;46995;55.740;37.402;2023-02-19T02:22:36;97808.94;;;-6.26;74.77
61109;BME280;46995;55.740;37.402;2023-02-19T02:31:08;97802.44;;;-6.33;74.27
61109;BME280;46995;55.740;37.402;2023-02-19T02:33:56;97802.84;;;-6.23;75.17
61109;BME280;46995;55.740;37.402;2023-02-19T02:36:30;97836.97;;;-6.03;75.65
61109;BME280;46995;55.740;37.402;2023-02-19T02:38:59;97838.28;;;-5.94;75.39
61109;BME280;46995;55.740;37.402;2023-02-19T02:41:33;97798.84;;;-6.12;74.28
61109;BME280;46995;55.740;37.402;2023-02-19T02:44:02;97786.72;;;-6.27;74.75
61109;BME280;46995;55.740;37.402;2023-02-19T02:46:34;97790.75;;;-6.21;74.44
61109;BME280;46995;55.740;37.402;2023-02-19T02:49:18;97807.34;;;-6.10;74.73
61109;BME280;46995;55.740;37.402;2023-02-19T02:51:46;97803.16;;;-6.12;74.58
61109;BME280;46995;55.740;37.402;2023-02-19T02:54:31;97831.34;;;-5.92;74.80
61109;BME280;46995;55.740;37.402;2023-02-19T02:57:21;97838.06;;;-5.89;74.92
61109;BME280;46995;55.740;37.402;2023-02-19T02:59:53;97822.78;;;-5.92;74.06
61109;BME280;46995;55.740;37.402;2023-02-19T03:02:23;97807.13;;;-6.05;73.76
61109;BME280;46995;55.740;37.402;2023-02-19T03:07:51;97814.13;;;-6.09;74.20
61109;BME280;46995;55.740;37.402;2023-02-19T03:13:33;97830.63;;;-5.95;73.87
61109;BME280;46995;55.740;37.402;2023-02-19T03:16:24;97767.81;;;-6.43;75.84
61109;BME280;46995;55.740;37.402;2023-02-19T03:19:14;97772.31;;;-6.48;77.27
61109;BME280;46995;55.740;37.402;2023-02-19T03:21:59;97754.84;;;-6.59;78.71
61109;BME280;46995;55.740;37.402;2023-02-19T03:24:30;97798.97;;;-6.32;78.31
61109;BME280;46995;55.740;37.402;2023-02-19T03:27:19;97791.47;;;-6.36;78.98
61109;BME280;46995;55.740;37.402;2023-02-19T03:29:53;97808.94;;;-6.26;79.86
61109;BME280;46995;55.740;37.402;2023-02-19T03:32:24;97788.69;;;-6.32;80.42
61109;BME280;46995;55.740;37.402;2023-02-19T03:35:00;97762.66;;;-6.43;80.27
61109;BME280;46995;55.740;37.402;2023-02-19T03:37:32;97786.72;;;-6.27;80.32
61109;BME280;46995;55.740;37.402;2023-02-19T03:40:01;97784.16;;;-6.27;80.39
61109;BME280;46995;55.740;37.402;2023-02-19T03:45:18;97802.84;;;-6.23;80.84
61109;BME280;46995;55.740;37.402;2023-02-19T03:47:53;97787.94;;;-6.34;80.31
61109;BME280;46995;55.740;37.402;2023-02-19T03:50:26;97744.53;;;-6.57;79.91
61109;BME280;46995;55.740;37.402;2023-02-19T03:53:31;97792.44;;;-6.20;80.52
61109;BME280;46995;55.740;37.402;2023-02-19T03:56:33;97744.69;;;-6.43;80.11
61109;BME280;46995;55.740;37.402;2023-02-19T04:01:39;97793.81;;;-6.13;80.34
61109;BME280;46995;55.740;37.402;2023-02-19T04:04:27;97787.00;;;-6.14;78.48
61109;BME280;46995;55.740;37.402;2023-02-19T04:06:55;97784.06;;;-6.07;79.33
61109;BME280;46995;55.740;37.402;2023-02-19T04:09:29;97729.16;;;-6.40;79.25
61109;BME280;46995;55.740;37.402;2023-02-19T04:12:05;97737.09;;;-6.45;79.11
61109;BME280;46995;55.740;37.402;2023-02-19T04:14:38;97780.03;;;-6.12;79.64
61109;BME280;46995;55.740;37.402;2023-02-19T04:17:13;97726.13;;;-6.48;79.06
61109;BME280;46995;55.740;37.402;2023-02-19T04:19:42;97777.56;;;-6.14;79.98
61109;BME280;46995;55.740;37.402;2023-02-19T04:22:11;97739.72;;;-6.46;80.63
61109;BME280;46995;55.740;37.402;2023-02-19T04:24:51;97746.09;;;-6.36;80.72
61109;BME280;46995;55.740;37.402;2023-02-19T04:27:28;97789.50;;;-6.13;80.77
61109;BME280;46995;55.740;37.402;2023-02-19T04:29:54;97740.88;;;-6.34;80.48
61109;BME280;46995;55.740;37.402;2023-02-19T04:32:28;97761.06;;;-6.27;81.04
61109;BME280;46995;55.740;37.402;2023-02-19T04:35:11;97747.75;;;-6.35;80.50
61109;BME280;46995;55.740;37.402;2023-02-19T04:37:37;97771.31;;;-6.27;80.17
61109;BME280;46995;55.740;37.402;2023-02-19T04:40:08;97751.94;;;-6.51;80.40
61109;BME280;46995;55.740;37.402;2023-02-19T04:42:37;97784.78;;;-6.22;81.66
61109;BME280;46995;55.740;37.402;2023-02-19T04:45:03;97741.50;;;-6.48;81.06
61109;BME280;46995;55.740;37.402;2023-02-19T04:47:32;97706.47;;;-6.66;80.66
61109;BME280;46995;55.740;37.402;2023-02-19T04:49:59;97778.63;;;-6.18;80.27
61109;BME280;46995;55.740;37.402;2023-02-19T04:52:25;97759.38;;;-6.28;80.02
61109;BME280;46995;55.740;37.402;2023-02-19T04:54:51;97742.75;;;-6.38;79.82
61109;BME280;46995;55.740;37.402;2023-02-19T04:57:19;97764.09;;;-6.19;80.08
61109;BME280;46995;55.740;37.402;2023-02-19T04:59:46;97755.84;;;-6.25;80.37
61109;BME280;46995;55.740;37.402;2023-02-19T05:02:11;97752.44;;;-6.26;79.89
61109;BME280;46995;55.740;37.402;2023-02-19T05:04:37;97746.84;;;-6.34;80.01
61109;BME280;46995;55.740;37.402;2023-02-19T05:07:03;97750.16;;;-6.32;80.09
61109;BME280;46995;55.740;37.402;2023-02-19T05:09:30;97754.13;;;-6.25;80.32
61109;BME280;46995;55.740;37.402;2023-02-19T05:11:56;97758.97;;;-6.19;79.94
61109;BME280;46995;55.740;37.402;2023-02-19T05:14:22;97741.13;;;-6.22;80.27
61109;BME280;46995;55.740;37.402;2023-02-19T05:16:48;97755.50;;;-6.18;79.68
61109;BME280;46995;55.740;37.402;2023-02-19T05:19:14;97742.13;;;-6.24;80.75
61109;BME280;46995;55.740;37.402;2023-02-19T05:21:41;97732.13;;;-6.30;80.60
61109;BME280;46995;55.740;37.402;2023-02-19T05:24:08;97740.38;;;-6.24;80.61
61109;BME280;46995;55.740;37.402;2023-02-19T05:26:35;97736.75;;;-6.20;80.19
61109;BME280;46995;55.740;37.402;2023-02-19T05:29:01;97732.38;;;-6.18;80.18
61109;BME280;46995;55.740;37.402;2023-02-19T05:31:27;97689.75;;;-6.39;79.41
61109;BME280;46995;55.740;37.402;2023-02-19T05:33:58;97742.22;;;-6.09;80.25
61109;BME280;46995;55.740;37.402;2023-02-19T05:36:24;97732.06;;;-6.12;81.20
61109;BME280;46995;55.740;37.402;2023-02-19T05:38:55;97741.16;;;-6.05;79.98
61109;BME280;46995;55.740;37.402;2023-02-19T05:41:23;97741.16;;;-6.05;80.60
61109;BME280;46995;55.740;37.402;2023-02-19T05:43:54;97742.81;;;-6.04;80.97
61109;BME280;46995;55.740;37.402;2023-02-19T05:46:22;97707.66;;;-6.20;79.84
61109;BME280;46995;55.740;37.402;2023-02-19T05:48:51;97727.03;;;-6.13;79.51
61109;BME280;46995;55.740;37.402;2023-02-19T05:51:20;97724.53;;;-6.15;79.83
61109;BME280;46995;55.740;37.402;2023-02-19T05:53:47;97723.00;;;-6.19;79.62
61109;BME280;46995;55.740;37.402;2023-02-19T05:58:50;97719.09;;;-6.09;79.24
61109;BME280;46995;55.740;37.402;2023-02-19T06:01:18;97740.34;;;-5.88;78.76
61109;BME280;46995;55.740;37.402;2023-02-19T06:03:44;97722.81;;;-5.97;79.35
61109;BME280;46995;55.740;37.402;2023-02-19T06:06:15;97716.13;;;-6.01;78.61
61109;BME280;46995;55.740;37.402;2023-02-19T06:08:43;97736.94;;;-5.88;79.55
61109;BME280;46995;55.740;37.402;2023-02-19T06:11:09;97739.91;;;-5.80;78.48
61109;BME280;46995;55.740;37.402;2023-02-19T06:13:45;97714.94;;;-5.94;79.52
61109;BME280;46995;55.740;37.402;2023-02-19T06:16:12;97728.97;;;-5.84;79.41
61109;BME280;46995;55.740;37.402;2023-02-19T06:18:38;97681.63;;;-6.13;78.96
61109;BME280;46995;55.740;37.402;2023-02-19T06:21:08;97699.88;;;-6.02;79.48
61109;BME280;46995;55.740;37.402;2023-02-19T06:23:34;97693.09;;;-6.03;79.99
61109;BME280;46995;55.740;37.402;2023-02-19T06:28:34;97695.03;;;-5.90;79.17
61109;BME280;46995;55.740;37.402;2023-02-19T06:31:00;97733.94;;;-5.64;81.06
61109;BME280;46995;55.740;37.402;2023-02-19T06:33:27;97737.81;;;-5.55;80.27
61109;BME280;46995;55.740;37.402;2023-02-19T06:35:56;97700.69;;;-5.67;80.40
61109;BME280;46995;55.740;37.402;2023-02-19T06:38:25;97700.59;;;-5.65;79.71
61109;BME280;46995;55.740;37.402;2023-02-19T06:40:51;97674.28;;;-5.70;79.24
61109;BME280;46995;55.740;37.402;2023-02-19T06:43:17;97719.84;;;-5.39;79.58
61109;BME280;46995;55.740;37.402;2023-02-19T06:45:43;97726.09;;;-5.28;79.18
61109;BME280;46995;55.740;37.402;2023-02-19T06:48:09;97676.81;;;-5.53;78.63
61109;BME280;46995;55.740;37.402;2023-02-19T06:50:35;97699.78;;;-5.33;77.21
61109;BME280;46995;55.740;37.402;2023-02-19T06:53:00;97704.91;;;-5.33;78.01
61109;BME280;46995;55.740;37.402;2023-02-19T06:55:30;97689.66;;;-5.36;77.63
61109;BME280;46995;55.740;37.402;2023-02-19T06:57:56;97684.91;;;-5.43;75.98
61109;BME280;46995;55.740;37.402;2023-02-19T07:00:22;97663.25;;;-5.55;78.22
61109;BME280;46995;55.740;37.402;2023-02-19T07:02:48;97690.19;;;-5.29;77.52
61109;BME280;46995;55.740;37.402;2023-02-19T07:05:17;97665.47;;;-5.49;77.59
61109;BME280;46995;55.740;37.402;2023-02-19T07:07:44;97666.41;;;-5.50;78.46
61109;BME280;46995;55.740;37.402;2023-02-19T07:10:10;97695.41;;;-5.31;78.97
61109;BME280;46995;55.740;37.402;2023-02-19T07:12:36;97696.59;;;-5.38;78.62
61109;BME280;46995;55.740;37.402;2023-02-19T07:15:02;97677.94;;;-5.41;78.68
61109;BME280;46995;55.740;37.402;2023-02-19T07:17:29;97690.38;;;-5.34;78.46
61109;BME280;46995;55.740;37.402;2023-02-19T07:19:55;97643.00;;;-5.61;77.40
61109;BME280;46995;55.740;37.402;2023-02-19T07:22:24;97637.16;;;-5.65;76.94
61109;BME280;46995;55.740;37.402;2023-02-19T07:24:52;97614.91;;;-5.81;77.35
61109;BME280;46995;55.740;37.402;2023-02-19T07:27:19;97661.16;;;-5.48;78.52
61109;BME280;46995;55.740;37.402;2023-02-19T07:29:48;97662.91;;;-5.49;77.99
61109;BME280;46995;55.740;37.402;2023-02-19T07:32:16;97681.03;;;-5.35;77.97
61109;BME280;46995;55.740;37.402;2023-02-19T07:34:44;97678.28;;;-5.32;79.20
61109;BME280;46995;55.740;37.402;2023-02-19T07:37:10;97627.97;;;-5.53;79.46
61109;BME280;46995;55.740;37.402;2023-02-19T07:39:37;97631.22;;;-5.49;79.47
61109;BME280;46995;55.740;37.402;2023-02-19T07:42:04;97666.28;;;-5.16;79.34
61109;BME280;46995;55.740;37.402;2023-02-19T07:44:31;97637.56;;;-5.24;79.33
61109;BME280;46995;55.740;37.402;2023-02-19T07:46:59;97640.47;;;-5.30;79.00
61109;BME280;46995;55.740;37.402;2023-02-19T07:49:25;97637.47;;;-5.38;78.02
61109;BME280;46995;55.740;37.402;2023-02-19T07:51:51;97646.34;;;-5.28;78.48
61109;BME280;46995;55.740;37.402;2023-02-19T07:54:17;97611.41;;;-5.47;78.55
61109;BME280;46995;55.740;37.402;2023-02-19T07:56:43;97648.28;;;-5.16;78.50
61109;BME280;46995;55.740;37.402;2023-02-19T07:59:09;97648.69;;;-5.07;78.00
61109;BME280;46995;55.740;37.402;2023-02-19T08:01:35;97627.44;;;-5.11;78.65
61109;BME280;46995;55.740;37.402;2023-02-19T08:04:19;97648.53;;;-4.89;78.68
61109;BME280;46995;55.740;37.402;2023-02-19T08:06:46;97643.31;;;-4.87;77.75
61109;BME280;46995;55.740;37.402;2023-02-19T08:09:12;97642.88;;;-4.80;77.80
61109;BME280;46995;55.740;37.402;2023-02-19T08:11:38;97631.41;;;-4.74;78.06
61109;BME280;46995;55.740;37.402;2023-02-19T08:14:40;97640.47;;;-4.67;77.68
61109;BME280;46995;55.740;37.402;2023-02-19T08:17:06;97622.78;;;-4.73;76.85
61109;BME280;46995;55.740;37.402;2023-02-19T08:19:32;97626.13;;;-4.87;79.31
61109;BME280;46995;55.740;37.402;2023-02-19T08:21:57;97645.63;;;-4.83;80.68
61109;BME280;46995;55.740;37.402;2023-02-19T08:24:23;97626.53;;;-4.94;81.08
61109;BME280;46995;55.740;37.402;2023-02-19T08:26:49;97625.19;;;-4.86;82.05
61109;BME280;46995;55.740;37.402;2023-02-19T08:29:15;97644.22;;;-4.73;81.46
61109;BME280;46995;55.740;37.402;2023-02-19T08:31:41;97626.44;;;-4.77;82.42
61109;BME280;46995;55.740;37.402;2023-02-19T08:34:06;97629.47;;;-4.55;83.18
61109;BME280;46995;55.740;37.402;2023-02-19T08:36:32;97627.47;;;-4.50;81.58
61109;BME280;46995;55.740;37.402;2023-02-19T08:38:58;97622.16;;;-4.47;82.21
61109;BME280;46995;55.740;37.402;2023-02-19T08:41:24;97614.13;;;-4.56;80.78
61109;BME280;46995;55.740;37.402;2023-02-19T08:43:50;97620.59;;;-4.65;80.42
61109;BME280;46995;55.740;37.402;2023-02-19T08:46:15;97611.97;;;-4.64;80.93
61109;BME280;46995;55.740;37.402;2023-02-19T08:48:41;97628.41;;;-4.51;81.43
61109;BME280;46995;55.740;37.402;2023-02-19T08:51:09;97640.69;;;-4.40;80.99
61109;BME280;46995;55.740;37.402;2023-02-19T08:53:37;97622.13;;;-4.31;80.73
61109;BME280;46995;55.740;37.402;2023-02-19T08:56:08;97601.66;;;-4.34;80.54
61109;BME280;46995;55.740;37.402;2023-02-19T08:58:34;97603.78;;;-4.41;79.12
61109;BME280;46995;55.740;37.402;2023-02-19T09:01:02;97604.84;;;-4.45;79.05
61109;BME280;46995;55.740;37.402;2023-02-19T09:03:29;97607.66;;;-4.34;80.00
61109;BME280;46995;55.740;37.402;2023-02-19T09:05:54;97602.28;;;-4.45;79.21
61109;BME280;46995;55.740;37.402;2023-02-19T09:08:20;97611.94;;;-4.48;79.06
61109;BME280;46995;55.740;37.402;2023-02-19T09:10:59;97598.19;;;-4.63;78.85
61109;BME280;46995;55.740;37.402;2023-02-19T09:13:26;97606.47;;;-4.58;80.13
61109;BME280;46995;55.740;37.402;2023-02-19T09:15:52;97591.84;;;-4.57;80.23
61109;BME280;46995;55.740;37.402;2023-02-19T09:18:18;97604.84;;;-4.45;79.60
61109;BME280;46995;55.740;37.402;2023-02-19T09:20:44;97609.66;;;-4.39;79.63
61109;BME280;46995;55.740;37.402;2023-02-19T09:23:10;97586.25;;;-4.50;78.45
61109;BME280;46995;55.740;37.402;2023-02-19T09:25:36;97606.44;;;-4.42;77.89
61109;BME280;46995;55.740;37.402;2023-02-19T09:28:02;97587.09;;;-4.49;78.62
61109;BME280;46995;55.740;37.402;2023-02-19T09:30:28;97577.06;;;-4.54;77.96
61109;BME280;46995;55.740;37.402;2023-02-19T09:32:54;97586.38;;;-4.51;79.13
61109;BME280;46995;55.740;37.402;2023-02-19T09:35:20;97595.66;;;-4.49;77.67
61109;BME280;46995;55.740;37.402;2023-02-19T09:37:45;97582.09;;;-4.66;79.23
61109;BME280;46995;55.740;37.402;2023-02-19T09:40:11;97589.09;;;-4.54;78.97
61109;BME280;46995;55.740;37.402;2023-02-19T09:42:40;97595.16;;;-4.40;78.65
61109;BME280;46995;55.740;37.402;2023-02-19T09:45:22;97585.78;;;-4.27;79.11
61109;BME280;46995;55.740;37.402;2023-02-19T09:47:51;97583.84;;;-4.23;77.98
61109;BME280;46995;55.740;37.402;2023-02-19T09:50:23;97582.09;;;-4.22;78.86
61109;BME280;46995;55.740;37.402;2023-02-19T09:52:58;97533.75;;;-4.47;78.62
61109;BME280;46995;55.740;37.402;2023-02-19T09:55:33;97578.06;;;-4.12;78.44
61109;BME280;46995;55.740;37.402;2023-02-19T09:58:33;97569.63;;;-4.14;77.58
61109;BME280;46995;55.740;37.402;2023-02-19T10:01:02;97551.91;;;-4.35;77.94
61109;BME280;46995;55.740;37.402;2023-02-19T10:03:35;97562.59;;;-4.27;78.15
61109;BME280;46995;55.740;37.402;2023-02-19T10:06:21;97566.28;;;-4.16;78.06
61109;BME280;46995;55.740;37.402;2023-02-19T10:09:26;97557.16;;;-4.22;77.14
61109;BME280;46995;55.740;37.402;2023-02-19T10:11:53;97562.78;;;-4.15;76.89
61109;BME280;46995;55.740;37.402;2023-02-19T10:14:39;97550.94;;;-4.04;76.46
61109;BME280;46995;55.740;37.402;2023-02-19T10:17:20;97551.50;;;-3.99;76.14
61109;BME280;46995;55.740;37.402;2023-02-19T10:19:48;97575.34;;;-3.81;76.02
61109;BME280;46995;55.740;37.402;2023-02-19T10:22:14;97564.28;;;-3.69;76.53
61109;BME280;46995;55.740;37.402;2023-02-19T10:24:40;97556.28;;;-3.78;75.36
61109;BME280;46995;55.740;37.402;2023-02-19T10:27:14;97549.56;;;-3.81;75.20
61109;BME280;46995;55.740;37.402;2023-02-19T10:29:45;97554.53;;;-3.78;75.79
61109;BME280;46995;55.740;37.402;2023-02-19T10:32:18;97548.84;;;-3.83;75.95
61109;BME280;46995;55.740;37.402;2023-02-19T10:34:46;97551.69;;;-3.88;75.75
61109;BME280;46995;55.740;37.402;2023-02-19T10:37:17;97563.63;;;-3.87;75.45
61109;BME280;46995;55.740;37.402;2023-02-19T10:39:48;97556.09;;;-3.75;74.63
61109;BME280;46995;55.740;37.402;2023-02-19T10:42:20;97548.47;;;-3.77;75.83
61109;BME280;46995;55.740;37.402;2023-02-19T10:44:54;97567.41;;;-3.64;75.43
61109;BME280;46995;55.740;37.402;2023-02-19T10:47:24;97557.03;;;-3.62;74.51
61109;BME280;46995;55.740;37.402;2023-02-19T10:49:52;97563.09;;;-3.63;76.15
61109;BME280;46995;55.740;37.402;2023-02-19T10:52:29;97563.06;;;-3.49;76.90
61109;BME280;46995;55.740;37.402;2023-02-19T10:55:27;97552.25;;;-3.27;77.59
61109;BME280;46995;55.740;37.402;2023-02-19T10:57:54;97555.16;;;-3.05;77.65
61109;BME280;46995;55.740;37.402;2023-02-19T11:00:29;97535.56;;;-2.95;76.85
61109;BME280;46995;55.740;37.402;2023-02-19T11:03:20;97539.91;;;-2.69;74.54
61109;BME280;46995;55.740;37.402;2023-02-19T11:06:01;97552.94;;;-2.58;72.54
61109;BME280;46995;55.740;37.402;2023-02-19T11:08:28;97547.72;;;-2.70;72.91
61109;BME280;46995;55.740;37.402;2023-02-19T11:10:55;97537.94;;;-2.92;74.38
61109;BME280;46995;55.740;37.402;2023-02-19T11:13:31;97541.28;;;-2.90;73.97
61109;BME280;46995;55.740;37.402;2023-02-19T11:15:58;97540.22;;;-3.00;74.39
61109;BME280;46995;55.740;37.402;2023-02-19T11:18:27;97543.63;;;-3.00;73.67
61109;BME280;46995;55.740;37.402;2023-02-19T11:20:58;97541.56;;;-2.94;74.49
61109;BME280;46995;55.740;37.402;2023-02-19T11:23:42;97549.16;;;-2.79;72.39
61109;BME280;46995;55.740;37.402;2023-02-19T11:26:22;97542.13;;;-2.77;72.14
61109;BME280;46995;55.740;37.402;2023-02-19T11:28:59;97526.38;;;-2.99;73.05
61109;BME280;46995;55.740;37.402;2023-02-19T11:31:28;97526.06;;;-3.21;74.11
61109;BME280;46995;55.740;37.402;2023-02-19T11:34:02;97533.56;;;-3.31;72.57
61109;BME280;46995;55.740;37.402;2023-02-19T11:36:32;97538.38;;;-3.39;74.15
61109;BME280;46995;55.740;37.402;2023-02-19T11:39:06;97522.16;;;-3.55;74.20
61109;BME280;46995;55.740;37.402;2023-02-19T11:44:57;97527.22;;;-3.39;74.08
61109;BME280;46995;55.740;37.402;2023-02-19T12:00:51;97524.63;;;-3.39;72.62
61109;BME280;46995;55.740;37.402;2023-02-19T12:06:26;97522.25;;;-3.43;71.98
61109;BME280;46995;55.740;37.402;2023-02-19T12:21:05;97534.44;;;-3.59;71.03
61109;BME280;46995;55.740;37.402;2023-02-19T12:40:49;97519.72;;;-3.85;72.58
61109;BME280;46995;55.740;37.402;2023-02-19T12:43:23;97525.97;;;-3.75;72.51
61109;BME280;46995;55.740;37.402;2023-02-19T12:46:02;97539.25;;;-3.67;72.56
61109;BME280;46995;55.740;37.402;2023-02-19T12:51:21;97528.28;;;-3.70;72.35
61109;BME280;46995;55.740;37.402;2023-02-19T12:53:55;97532.59;;;-3.71;72.89
61109;BME280;46995;55.740;37.402;2023-02-19T12:56:28;97536.28;;;-3.75;72.58
61109;BME280;46995;55.740;37.402;2023-02-19T12:59:10;97522.22;;;-3.83;71.45
61109;BME280;46995;55.740;37.402;2023-02-19T13:01:55;97536.28;;;-3.75;72.35
61109;BME280;46995;55.740;37.402;2023-02-19T13:04:31;97529.03;;;-3.82;72.39
61109;BME280;46995;55.740;37.402;2023-02-19T13:07:16;97523.22;;;-3.86;72.96
61109;BME280;46995;55.740;37.402;2023-02-19T13:09:55;97544.94;;;-3.76;72.87
61109;BME280;46995;55.740;37.402;2023-02-19T13:12:29;97535.19;;;-3.85;73.19
61109;BME280;46995;55.740;37.402;2023-02-19T13:15:30;97534.09;;;-3.95;73.82
61109;BME280;46995;55.740;37.402;2023-02-19T13:18:01;97518.50;;;-4.08;73.42
61109;BME280;46995;55.740;37.402;2023-02-19T13:20:36;97537.09;;;-4.03;74.64
61109;BME280;46995;55.740;37.402;2023-02-19T13:23:18;97535.91;;;-3.97;73.97
61109;BME280;46995;55.740;37.402;2023-02-19T13:36:56;97532.59;;;-4.28;75.19
61109;BME280;46995;55.740;37.402;2023-02-19T13:39:23;97539.03;;;-4.20;74.98
61109;BME280;46995;55.740;37.402;2023-02-19T13:41:57;97531.69;;;-4.12;74.99
61109;BME280;46995;55.740;37.402;2023-02-19T13:44:31;97529.22;;;-4.14;74.69
61109;BME280;46995;55.740;37.402;2023-02-19T13:46:57;97525.53;;;-4.10;74.07
61109;BME280;46995;55.740;37.402;2023-02-19T13:51:59;97536.84;;;-4.12;74.08
61109;BME280;46995;55.740;37.402;2023-02-19T13:54:28;97531.88;;;-4.15;74.33
61109;BME280;46995;55.740;37.402;2023-02-19T13:59:56;97524.84;;;-4.13;74.78
61109;BME280;46995;55.740;37.402;2023-02-19T14:05:02;97504.63;;;-4.19;75.27
61109;BME280;46995;55.740;37.402;2023-02-19T14:07:50;97516.22;;;-4.12;74.83
61109;BME280;46995;55.740;37.402;2023-02-19T14:10:50;97517.31;;;-4.16;73.83
61109;BME280;46995;55.740;37.402;2023-02-19T14:30:54;97510.97;;;-4.25;75.33
61109;BME280;46995;55.740;37.402;2023-02-19T14:33:23;97518.03;;;-4.29;75.71
61109;BME280;46995;55.740;37.402;2023-02-19T14:36:05;97502.22;;;-4.37;75.48
61109;BME280;46995;55.740;37.402;2023-02-19T14:38:38;97491.78;;;-4.49;75.68
61109;BME280;46995;55.740;37.402;2023-02-19T14:41:12;97509.94;;;-4.51;76.50
61109;BME280;46995;55.740;37.402;2023-02-19T14:43:39;97511.75;;;-4.53;76.50
61109;BME280;46995;55.740;37.402;2023-02-19T14:46:30;97500.34;;;-4.63;77.01
61109;BME280;46995;55.740;37.402;2023-02-19T14:51:46;97491.84;;;-4.65;77.09
61109;BME280;46995;55.740;37.402;2023-02-19T14:57:05;97481.25;;;-4.75;77.15
61109;BME280;46995;55.740;37.402;2023-02-19T14:59:35;97497.19;;;-4.68;77.44
61109;BME280;46995;55.740;37.402;2023-02-19T15:02:12;97493.16;;;-4.72;77.54
61109;BME280;46995;55.740;37.402;2023-02-19T15:04:38;97479.16;;;-4.82;77.63
61109;BME280;46995;55.740;37.402;2023-02-19T15:07:12;97480.44;;;-4.75;77.01
61109;BME280;46995;55.740;37.402;2023-02-19T15:09:47;97473.31;;;-4.86;76.84
61109;BME280;46995;55.740;37.402;2023-02-19T15:12:17;97499.22;;;-4.73;76.89
61109;BME280;46995;55.740;37.402;2023-02-19T15:14:45;97501.94;;;-4.76;76.98
61109;BME280;46995;55.740;37.402;2023-02-19T15:17:14;97498.19;;;-4.71;78.25